Time;durP1;ratioP1;P1;durP2;ratioP2;P2;SDS_P1;SDS_P2;PMS_P1;PMS_P2;Temp;Humidity;BMP_temperature;BMP_pressure;BME280_temperature;BME280_humidity;BME280_pressure;Samples;Min_cycle;Max_cycle;Signal;HPM_P1;HPM_P2
2021/03/16 00:02:45;;;;;;;10.60;5.40;;;;;;;;;;5063330;28;20162;-62
2021/03/16 00:05:12;;;;;;;6.88;4.35;;;;;;;;;;5059778;28;20052;-62
2021/03/16 00:07:38;;;;;;;10.43;5.45;;;;;;;;;;5062048;28;20041;-62
2021/03/16 00:10:05;;;;;;;13.35;5.40;;;;;;;;;;5061293;28;20052;-62
2021/03/16 00:12:31;;;;;;;9.20;3.92;;;;;;;;;;5060929;28;20135;-62
2021/03/16 00:14:57;;;;;;;9.57;5.47;;;;;;;;;;5061871;28;20036;-63
2021/03/16 00:17:24;;;;;;;10.27;5.00;;;;;;;;;;5063570;28;20048;-62
2021/03/16 00:19:50;;;;;;;6.90;4.18;;;;;;;;;;5061953;28;20119;-62
2021/03/16 00:22:17;;;;;;;9.95;5.43;;;;;;;;;;5064949;28;20045;-62
2021/03/16 00:24:43;;;;;;;10.23;5.70;;;;;;;;;;5061779;28;20036;-62
2021/03/16 00:27:09;;;;;;;8.85;4.72;;;;;;;;;;5060328;28;20504;-62
2021/03/16 00:29:35;;;;;;;8.45;4.35;;;;;;;;;;5060931;28;20041;-62
2021/03/16 00:32:01;;;;;;;9.77;4.97;;;;;;;;;;5061178;28;20049;-62
2021/03/16 00:34:28;;;;;;;7.67;4.50;;;;;;;;;;5061138;28;20044;-62
2021/03/16 00:36:54;;;;;;;8.87;4.73;;;;;;;;;;5064064;28;20036;-62
2021/03/16 00:39:20;;;;;;;7.43;4.82;;;;;;;;;;5063859;28;20052;-62
2021/03/16 00:41:46;;;;;;;9.32;4.38;;;;;;;;;;5063506;28;20404;-62
2021/03/16 00:44:15;;;;;;;9.63;4.80;;;;;;;;;;5059198;28;20049;-62
2021/03/16 00:46:42;;;;;;;9.20;4.85;;;;;;;;;;5062295;28;20103;-62
2021/03/16 00:49:09;;;;;;;;;;;;;;;;;;5062733;28;20592;-62
2021/03/16 00:51:35;;;;;;;9.00;4.30;;;;;;;;;;5058101;28;20276;-62
2021/03/16 00:54:01;;;;;;;9.63;4.80;;;;;;;;;;5061508;28;20057;-62
2021/03/16 00:56:28;;;;;;;10.30;4.30;;;;;;;;;;5060104;28;20384;-62
2021/03/16 00:58:54;;;;;;;12.03;5.37;;;;;;;;;;5061265;28;20407;-62
2021/03/16 01:01:20;;;;;;;6.23;4.03;;;;;;;;;;5062576;28;20703;-62
2021/03/16 01:03:47;;;;;;;8.07;3.88;;;;;;;;;;5060109;28;20048;-62
2021/03/16 01:06:13;;;;;;;9.00;4.27;;;;;;;;;;5062338;28;20132;-62
2021/03/16 01:08:39;;;;;;;9.27;4.53;;;;;;;;;;5059236;28;20053;-62
2021/03/16 01:11:06;;;;;;;7.60;4.93;;;;;;;;;;5062040;28;20080;-63
2021/03/16 01:13:32;;;;;;;10.30;5.50;;;;;;;;;;5059401;28;20053;-62
2021/03/16 01:15:59;;;;;;;13.13;5.00;;;;;;;;;;5060086;28;20041;-62
2021/03/16 01:18:26;;;;;;;10.45;4.47;;;;;;;;;;5063701;28;20052;-62
2021/03/16 01:20:52;;;;;;;6.53;3.80;;;;;;;;;;5058565;28;20106;-62
2021/03/16 01:23:19;;;;;;;5.88;3.33;;;;;;;;;;5061151;28;20063;-62
2021/03/16 01:26:01;;;;;;;8.77;4.03;;;;;;;;;;5063405;28;20056;-62
2021/03/16 01:28:27;;;;;;;10.50;4.82;;;;;;;;;;5062098;28;20432;-62
2021/03/16 01:30:54;;;;;;;7.83;3.70;;;;;;;;;;5061888;28;20109;-62
2021/03/16 01:33:21;;;;;;;7.78;4.13;;;;;;;;;;5059885;28;20327;-62
2021/03/16 01:35:47;;;;;;;8.77;4.73;;;;;;;;;;5062146;28;20055;-62
2021/03/16 01:38:14;;;;;;;8.60;3.97;;;;;;;;;;5061430;28;20107;-62
2021/03/16 01:40:41;;;;;;;7.07;4.03;;;;;;;;;;5060302;28;20048;-62
2021/03/16 01:43:08;;;;;;;10.93;4.00;;;;;;;;;;5060630;28;20048;-62
2021/03/16 01:45:35;;;;;;;7.57;4.07;;;;;;;;;;5063017;28;20511;-62
2021/03/16 01:48:03;;;;;;;8.05;4.40;;;;;;;;;;5062077;28;20048;-62
2021/03/16 01:50:29;;;;;;;7.63;4.47;;;;;;;;;;5061181;28;20428;-62
2021/03/16 01:52:57;;;;;;;8.10;4.80;;;;;;;;;;5064006;28;20098;-62
2021/03/16 01:55:24;;;;;;;7.25;4.15;;;;;;;;;;5060979;28;20037;-62
2021/03/16 01:57:51;;;;;;;7.73;4.60;;;;;;;;;;5059758;28;20051;-62
2021/03/16 02:00:38;;;;;;;9.43;4.37;;;;;;;;;;5060169;28;20234;-62
2021/03/16 02:03:24;;;;;;;8.33;4.60;;;;;;;;;;5061221;28;20060;-63
2021/03/16 02:06:12;;;;;;;9.03;5.00;;;;;;;;;;5067378;28;20075;-64
2021/03/16 02:09:06;;;;;;;10.30;4.53;;;;;;;;;;5062744;28;20047;-64
2021/03/16 02:12:00;;;;;;;10.33;4.43;;;;;;;;;;5064103;28;20047;-64
2021/03/16 02:14:50;;;;;;;9.67;4.27;;;;;;;;;;5067363;28;20183;-64
2021/03/16 02:17:36;;;;;;;7.83;4.30;;;;;;;;;;5064502;28;20118;-64
2021/03/16 02:20:35;;;;;;;6.53;3.77;;;;;;;;;;5063856;28;20530;-64
2021/03/16 02:23:25;;;;;;;8.38;3.97;;;;;;;;;;5063869;28;20062;-64
2021/03/16 02:26:14;;;;;;;8.87;4.30;;;;;;;;;;5066186;28;20051;-64
2021/03/16 02:29:05;;;;;;;6.77;4.20;;;;;;;;;;5063572;28;20054;-64
2021/03/16 02:31:55;;;;;;;8.67;4.33;;;;;;;;;;5064170;28;20107;-64
2021/03/16 02:34:45;;;;;;;9.83;4.03;;;;;;;;;;5062993;28;20444;-64
2021/03/16 02:37:33;;;;;;;6.80;4.07;;;;;;;;;;5064640;28;20076;-64
2021/03/16 02:40:19;;;;;;;5.03;3.67;;;;;;;;;;5064931;28;20113;-64
2021/03/16 02:43:05;;;;;;;9.17;3.87;;;;;;;;;;5062519;28;20052;-64
2021/03/16 02:45:50;;;;;;;5.33;3.90;;;;;;;;;;5064942;28;20804;-64
2021/03/16 02:48:35;;;;;;;7.67;3.90;;;;;;;;;;5063956;28;20067;-64
2021/03/16 02:51:22;;;;;;;8.40;4.00;;;;;;;;;;5061862;28;20052;-64
2021/03/16 02:54:07;;;;;;;6.80;3.97;;;;;;;;;;5063761;28;20947;-64
2021/03/16 02:56:52;;;;;;;8.50;4.13;;;;;;;;;;5063162;28;20044;-64
2021/03/16 02:59:36;;;;;;;7.00;4.13;;;;;;;;;;5064994;28;20067;-64
2021/03/16 03:02:22;;;;;;;9.00;4.27;;;;;;;;;;5065228;28;20182;-64
2021/03/16 03:05:07;;;;;;;7.97;3.80;;;;;;;;;;5064195;28;20055;-64
2021/03/16 03:07:54;;;;;;;10.43;4.27;;;;;;;;;;5065374;28;20558;-64
2021/03/16 03:10:39;;;;;;;6.70;4.07;;;;;;;;;;5062785;28;20079;-64
2021/03/16 03:13:24;;;;;;;8.83;4.30;;;;;;;;;;5064935;28;20403;-64
2021/03/16 03:16:09;;;;;;;9.00;4.30;;;;;;;;;;5063467;28;20454;-64
2021/03/16 03:18:54;;;;;;;5.53;3.93;;;;;;;;;;5063265;28;20074;-64
2021/03/16 03:21:48;;;;;;;7.03;3.97;;;;;;;;;;5064436;28;20070;-64
2021/03/16 03:24:36;;;;;;;6.47;4.10;;;;;;;;;;5063731;28;20059;-64
2021/03/16 03:27:22;;;;;;;7.27;3.90;;;;;;;;;;5061239;28;20067;-64
2021/03/16 03:30:08;;;;;;;7.57;3.93;;;;;;;;;;5064679;28;20113;-64
2021/03/16 03:32:58;;;;;;;7.13;3.73;;;;;;;;;;5062438;28;20060;-64
2021/03/16 03:35:43;;;;;;;10.27;3.97;;;;;;;;;;5062749;28;20183;-64
2021/03/16 03:38:29;;;;;;;7.50;4.10;;;;;;;;;;5062626;28;20503;-64
2021/03/16 03:41:13;;;;;;;5.93;3.93;;;;;;;;;;5063259;28;20093;-64
2021/03/16 03:43:59;;;;;;;8.17;3.67;;;;;;;;;;5063014;28;20094;-64
2021/03/16 03:46:45;;;;;;;7.57;3.50;;;;;;;;;;5063908;28;20411;-64
2021/03/16 03:49:30;;;;;;;6.27;3.47;;;;;;;;;;5063391;28;20048;-64
2021/03/16 03:52:16;;;;;;;6.07;3.80;;;;;;;;;;5062761;28;20074;-64
2021/03/16 03:55:02;;;;;;;6.93;3.90;;;;;;;;;;5061950;28;20044;-64
2021/03/16 03:57:56;;;;;;;6.37;3.73;;;;;;;;;;5063474;28;20079;-64
2021/03/16 04:00:41;;;;;;;8.53;4.20;;;;;;;;;;5062866;28;20096;-64
2021/03/16 04:03:26;;;;;;;6.77;3.53;;;;;;;;;;5063418;28;20075;-64
2021/03/16 04:06:12;;;;;;;6.93;4.10;;;;;;;;;;5061998;28;20044;-64
2021/03/16 04:08:57;;;;;;;8.60;4.03;;;;;;;;;;5061807;28;20051;-64
2021/03/16 04:11:42;;;;;;;5.23;3.57;;;;;;;;;;5060041;28;20052;-64
2021/03/16 04:14:27;;;;;;;6.10;3.70;;;;;;;;;;5061974;28;20462;-64
2021/03/16 04:17:12;;;;;;;6.27;3.90;;;;;;;;;;5061468;28;20055;-64
2021/03/16 04:19:57;;;;;;;7.97;3.97;;;;;;;;;;5061017;28;20417;-64
2021/03/16 04:22:42;;;;;;;5.63;3.70;;;;;;;;;;5060472;28;20182;-64
2021/03/16 04:25:27;;;;;;;6.33;3.50;;;;;;;;;;5060329;28;20059;-64
2021/03/16 04:28:31;;;;;;;5.60;3.20;;;;;;;;;;5059949;28;20556;-64
2021/03/16 04:31:15;;;;;;;6.13;3.53;;;;;;;;;;5063324;28;20125;-64
2021/03/16 04:34:00;;;;;;;7.40;3.73;;;;;;;;;;5060453;28;20214;-64
2021/03/16 04:36:45;;;;;;;7.30;3.90;;;;;;;;;;5061633;28;20442;-64
2021/03/16 04:39:30;;;;;;;5.30;3.27;;;;;;;;;;5061698;28;20075;-65
2021/03/16 04:42:14;;;;;;;5.03;3.33;;;;;;;;;;5061914;28;20052;-64
2021/03/16 04:44:59;;;;;;;7.47;3.60;;;;;;;;;;5063542;28;20090;-64
2021/03/16 04:47:45;;;;;;;6.47;3.40;;;;;;;;;;5063018;28;20629;-64
2021/03/16 04:50:30;;;;;;;9.53;3.87;;;;;;;;;;5062348;28;20416;-64
2021/03/16 04:53:15;;;;;;;5.30;3.50;;;;;;;;;;5061878;28;20535;-64
2021/03/16 04:55:59;;;;;;;5.67;3.60;;;;;;;;;;5060988;28;20094;-64
2021/03/16 04:58:54;;;;;;;7.87;3.73;;;;;;;;;;5061057;28;20155;-64
2021/03/16 05:01:40;;;;;;;9.93;3.80;;;;;;;;;;5060289;28;20093;-64
2021/03/16 05:04:25;;;;;;;10.50;3.70;;;;;;;;;;5061194;28;20047;-64
2021/03/16 05:07:10;;;;;;;7.83;3.97;;;;;;;;;;5061162;28;20044;-64
2021/03/16 05:09:55;;;;;;;5.90;3.50;;;;;;;;;;5061135;28;20510;-64
2021/03/16 05:12:39;;;;;;;7.73;3.93;;;;;;;;;;5061201;28;20174;-64
2021/03/16 05:15:24;;;;;;;6.10;3.67;;;;;;;;;;5062284;28;20055;-64
2021/03/16 05:18:08;;;;;;;5.37;3.50;;;;;;;;;;5062949;28;20047;-64
2021/03/16 05:20:54;;;;;;;6.73;3.37;;;;;;;;;;5061259;28;20044;-64
2021/03/16 05:23:38;;;;;;;6.73;3.40;;;;;;;;;;5062471;28;20519;-64
2021/03/16 05:26:24;;;;;;;4.10;2.47;;;;;;;;;;5060621;28;20055;-64
2021/03/16 05:29:19;;;;;;;5.50;3.37;;;;;;;;;;5062196;28;20412;-64
2021/03/16 05:32:04;;;;;;;5.40;3.13;;;;;;;;;;5062465;28;20060;-64
2021/03/16 05:34:49;;;;;;;5.77;3.27;;;;;;;;;;5060431;28;20548;-64
2021/03/16 05:37:37;;;;;;;7.40;3.60;;;;;;;;;;5061953;28;20064;-64
2021/03/16 05:40:27;;;;;;;9.23;3.47;;;;;;;;;;5067679;28;20052;-64
2021/03/16 05:43:12;;;;;;;7.23;3.73;;;;;;;;;;5065634;28;20051;-64
2021/03/16 05:45:57;;;;;;;6.30;4.20;;;;;;;;;;5064204;28;20155;-64
2021/03/16 05:48:47;;;;;;;10.73;4.00;;;;;;;;;;5066960;28;20165;-64
2021/03/16 05:51:36;;;;;;;6.10;3.80;;;;;;;;;;5064646;28;20067;-64
2021/03/16 05:54:21;;;;;;;7.10;3.97;;;;;;;;;;5062428;28;20157;-64
2021/03/16 05:57:06;;;;;;;7.20;3.80;;;;;;;;;;5065996;28;20522;-64
2021/03/16 05:59:52;;;;;;;13.05;3.92;;;;;;;;;;5065929;28;20114;-64
2021/03/16 06:02:37;;;;;;;9.03;4.50;;;;;;;;;;5067108;28;20048;-64
2021/03/16 06:05:22;;;;;;;9.50;4.03;;;;;;;;;;5063404;28;20060;-62
2021/03/16 06:08:07;;;;;;;7.93;4.07;;;;;;;;;;5062337;28;20058;-62
2021/03/16 06:10:52;;;;;;;8.70;4.27;;;;;;;;;;5065684;28;20130;-62
2021/03/16 06:13:49;;;;;;;11.02;4.45;;;;;;;;;;5066019;28;20060;-62
2021/03/16 06:16:37;;;;;;;6.63;3.80;;;;;;;;;;5064331;28;20055;-62
2021/03/16 06:19:33;;;;;;;9.63;2.90;;;;;;;;;;5065642;28;20105;-62
2021/03/16 06:22:19;;;;;;;7.00;4.05;;;;;;;;;;5066086;28;20047;-62
2021/03/16 06:25:07;;;;;;;8.13;4.10;;;;;;;;;;5065864;28;20498;-63
2021/03/16 06:27:59;;;;;;;8.30;4.00;;;;;;;;;;5065725;28;20059;-62
2021/03/16 06:30:47;;;;;;;6.22;3.83;;;;;;;;;;5064344;28;20048;-62
2021/03/16 06:33:32;;;;;;;;;;;;;;;;;;5064509;28;20626;-62
2021/03/16 06:36:22;;;;;;;8.32;3.67;;;;;;;;;;5065384;28;19927;-62
2021/03/16 06:39:16;;;;;;;7.15;3.30;;;;;;;;;;5063640;28;20051;-62
2021/03/16 06:42:01;;;;;;;8.65;3.80;;;;;;;;;;5062729;28;20624;-62
2021/03/16 06:44:46;;;;;;;6.30;3.42;;;;;;;;;;5061988;28;20063;-62
2021/03/16 06:47:38;;;;;;;7.57;3.58;;;;;;;;;;5061952;28;20142;-62
2021/03/16 06:50:28;;;;;;;8.05;3.97;;;;;;;;;;5061675;28;20051;-62
2021/03/16 06:53:21;;;;;;;6.78;3.85;;;;;;;;;;5064166;28;20060;-62
2021/03/16 06:56:07;;;;;;;8.85;5.18;;;;;;;;;;5063561;28;20117;-62
2021/03/16 06:58:52;;;;;;;13.40;4.57;;;;;;;;;;5063898;28;20512;-61
2021/03/16 07:01:37;;;;;;;8.57;4.03;;;;;;;;;;5064947;28;20056;-62
2021/03/16 07:04:24;;;;;;;9.77;4.20;;;;;;;;;;5063127;28;20055;-62
2021/03/16 07:07:10;;;;;;;7.43;4.40;;;;;;;;;;5063040;28;20558;-62
2021/03/16 07:09:55;;;;;;;9.35;5.05;;;;;;;;;;5062937;28;20052;-62
2021/03/16 07:12:41;;;;;;;10.02;4.53;;;;;;;;;;5059567;28;20059;-61
2021/03/16 07:15:27;;;;;;;8.02;5.05;;;;;;;;;;5063933;28;20052;-61
2021/03/16 07:18:12;;;;;;;9.02;5.00;;;;;;;;;;5060855;28;20180;-61
2021/03/16 07:20:57;;;;;;;8.30;5.00;;;;;;;;;;5063408;28;20047;-61
2021/03/16 07:23:47;;;;;;;7.75;4.20;;;;;;;;;;5062707;28;20048;-61
2021/03/16 07:26:33;;;;;;;6.35;4.30;;;;;;;;;;5061802;28;20059;-61
2021/03/16 07:29:19;;;;;;;7.22;4.32;;;;;;;;;;5061850;28;20047;-61
2021/03/16 07:32:18;;;;;;;7.18;4.10;;;;;;;;;;5063177;28;20411;-61
2021/03/16 07:35:04;;;;;;;7.35;4.50;;;;;;;;;;5061291;28;20403;-61
2021/03/16 07:37:49;;;;;;;6.57;4.22;;;;;;;;;;5063449;28;20058;-61
2021/03/16 07:40:39;;;;;;;8.20;4.20;;;;;;;;;;5063748;28;20060;-61
2021/03/16 07:43:34;;;;;;;6.63;3.90;;;;;;;;;;5062827;28;20055;-61
2021/03/16 07:46:19;;;;;;;5.78;3.92;;;;;;;;;;5062929;28;20068;-61
2021/03/16 07:49:06;;;;;;;7.72;3.78;;;;;;;;;;5062855;28;20238;-61
2021/03/16 07:51:52;;;;;;;5.18;3.40;;;;;;;;;;5062654;28;20102;-61
2021/03/16 07:54:38;;;;;;;5.60;3.63;;;;;;;;;;5061591;28;20051;-61
2021/03/16 07:57:30;;;;;;;7.72;4.07;;;;;;;;;;5060833;28;20515;-61
2021/03/16 08:00:16;;;;;;;7.03;4.18;;;;;;;;;;5061228;28;20675;-61
2021/03/16 08:03:02;;;;;;;5.88;3.63;;;;;;;;;;5060593;28;20048;-61
2021/03/16 08:05:48;;;;;;;6.85;3.90;;;;;;;;;;5062347;28;20530;-61
2021/03/16 08:08:40;;;;;;;7.00;3.90;;;;;;;;;;5061621;28;20079;-61
2021/03/16 08:11:54;;;;;;;5.10;3.55;;;;;;;;;;5060420;28;20052;-61
2021/03/16 08:14:45;;;;;;;7.85;3.90;;;;;;;;;;5060808;28;20186;-61
2021/03/16 08:17:30;;;;;;;7.88;4.10;;;;;;;;;;5061637;28;20056;-61
2021/03/16 08:20:25;;;;;;;11.15;3.50;;;;;;;;;;5063434;28;20043;-61
2021/03/16 08:23:12;;;;;;;7.32;3.70;;;;;;;;;;5061838;28;20059;-61
2021/03/16 08:25:57;;;;;;;5.22;3.53;;;;;;;;;;5060894;28;20043;-61
2021/03/16 08:28:46;;;;;;;6.82;3.80;;;;;;;;;;5064445;28;20060;-61
2021/03/16 08:31:40;;;;;;;7.28;3.30;;;;;;;;;;5063020;28;20140;-61
2021/03/16 08:34:27;;;;;;;5.45;3.08;;;;;;;;;;5060500;28;20048;-61
2021/03/16 08:37:25;;;;;;;7.40;3.00;;;;;;;;;;5060171;28;20542;-61
2021/03/16 08:40:19;;;;;;;5.97;3.13;;;;;;;;;;5062064;28;20079;-61
2021/03/16 08:43:09;;;;;;;8.13;3.55;;;;;;;;;;5061542;28;20056;-61
2021/03/16 08:45:53;;;;;;;6.32;3.20;;;;;;;;;;5061827;28;20102;-61
2021/03/16 08:48:41;;;;;;;4.60;3.00;;;;;;;;;;5060968;28;20075;-61
2021/03/16 08:51:27;;;;;;;7.53;3.25;;;;;;;;;;5060937;28;20055;-61
2021/03/16 08:54:25;;;;;;;5.80;2.95;;;;;;;;;;5060464;28;20060;-61
2021/03/16 08:57:15;;;;;;;7.63;2.95;;;;;;;;;;5062289;28;20039;-62
2021/03/16 09:00:01;;;;;;;5.22;2.70;;;;;;;;;;5060826;28;20141;-61
2021/03/16 09:02:46;;;;;;;9.43;2.60;;;;;;;;;;5062929;28;20110;-61
2021/03/16 09:05:31;;;;;;;4.57;2.30;;;;;;;;;;5061841;28;20056;-61
2021/03/16 09:08:16;;;;;;;3.03;2.20;;;;;;;;;;5059702;28;20161;-61
2021/03/16 09:11:02;;;;;;;4.90;2.30;;;;;;;;;;5061363;28;20059;-61
2021/03/16 09:13:47;;;;;;;4.40;2.45;;;;;;;;;;5065202;28;20067;-61
2021/03/16 09:16:33;;;;;;;3.65;2.55;;;;;;;;;;5063744;28;20628;-61
2021/03/16 09:19:20;;;;;;;4.80;2.38;;;;;;;;;;5066864;28;20071;-61
2021/03/16 09:22:10;;;;;;;4.35;2.33;;;;;;;;;;5067126;28;20052;-61
2021/03/16 09:24:55;;;;;;;4.18;2.22;;;;;;;;;;5067522;28;20182;-61
2021/03/16 09:27:41;;;;;;;8.13;2.42;;;;;;;;;;5064673;28;20059;-61
2021/03/16 09:30:32;;;;;;;4.60;2.40;;;;;;;;;;5065933;28;20435;-62
2021/03/16 09:33:18;;;;;;;3.28;2.25;;;;;;;;;;5064685;28;20526;-61
2021/03/16 09:36:03;;;;;;;3.33;1.90;;;;;;;;;;5065519;28;20074;-61
2021/03/16 09:39:09;;;;;;;5.22;2.30;;;;;;;;;;5025315;28;20590;-61
2021/03/16 09:41:52;;;;;;;5.28;1.90;;;;;;;;;;5018170;28;20068;-61
2021/03/16 09:44:25;;;;;;;3.75;2.10;;;;;;;;;;5047743;28;20044;-62
2021/03/16 09:46:53;;;;;;;5.53;2.00;;;;;;;;;;5065470;28;20137;-61
2021/03/16 09:49:28;;;;;;;2.85;1.90;;;;;;;;;;5065210;28;20059;-61
2021/03/16 09:51:59;;;;;;;4.00;1.65;;;;;;;;;;5064052;28;20052;-61
2021/03/16 09:54:26;;;;;;;5.10;1.90;;;;;;;;;;5064946;28;20139;-61
2021/03/16 09:56:52;;;;;;;3.50;1.83;;;;;;;;;;5066978;28;20041;-61
2021/03/16 09:59:18;;;;;;;4.70;2.05;;;;;;;;;;5064587;28;20040;-62
2021/03/16 10:02:00;;;;;;;3.08;1.98;;;;;;;;;;5063663;28;20047;-61
2021/03/16 10:04:28;;;;;;;4.00;1.77;;;;;;;;;;5064092;28;20040;-61
2021/03/16 10:06:57;;;;;;;2.92;1.85;;;;;;;;;;5064359;28;20068;-61
2021/03/16 10:09:25;;;;;;;4.85;2.10;;;;;;;;;;5065668;28;20615;-61
2021/03/16 10:11:53;;;;;;;3.22;1.90;;;;;;;;;;5061980;28;20480;-61
2021/03/16 10:14:28;;;;;;;4.78;1.80;;;;;;;;;;5062794;28;20403;-61
2021/03/16 10:16:55;;;;;;;5.43;1.83;;;;;;;;;;5065176;28;20447;-61
2021/03/16 10:19:22;;;;;;;2.72;1.85;;;;;;;;;;5065168;28;20041;-61
2021/03/16 10:21:49;;;;;;;3.13;1.88;;;;;;;;;;5063084;28;20070;-61
2021/03/16 10:24:23;;;;;;;4.28;2.00;;;;;;;;;;5063616;28;20393;-61
2021/03/16 10:26:55;;;;;;;3.83;1.90;;;;;;;;;;5062997;28;20094;-61
2021/03/16 10:29:22;;;;;;;5.40;2.10;;;;;;;;;;5063525;28;20131;-61
2021/03/16 10:31:49;;;;;;;3.97;2.22;;;;;;;;;;5064285;28;20042;-61
2021/03/16 10:34:15;;;;;;;4.57;1.83;;;;;;;;;;5064371;28;20052;-61
2021/03/16 10:36:41;;;;;;;2.45;1.80;;;;;;;;;;5065527;28;20037;-61
2021/03/16 10:39:08;;;;;;;4.97;1.85;;;;;;;;;;5064724;28;20044;-61
2021/03/16 10:41:35;;;;;;;5.32;2.30;;;;;;;;;;5062868;28;20055;-61
2021/03/16 10:44:01;;;;;;;4.28;1.80;;;;;;;;;;5063854;28;20041;-61
2021/03/16 10:46:27;;;;;;;5.78;2.13;;;;;;;;;;5064331;28;20060;-61
2021/03/16 10:48:55;;;;;;;2.63;1.85;;;;;;;;;;5065689;28;20118;-62
2021/03/16 10:51:21;;;;;;;4.55;2.05;;;;;;;;;;5065171;28;20079;-62
2021/03/16 10:53:47;;;;;;;4.05;2.08;;;;;;;;;;5064254;28;20048;-62
2021/03/16 10:56:14;;;;;;;3.90;2.13;;;;;;;;;;5059917;28;20051;-61
2021/03/16 10:58:40;;;;;;;4.90;2.05;;;;;;;;;;5063764;28;20545;-62
2021/03/16 11:01:06;;;;;;;3.65;2.03;;;;;;;;;;5062574;28;20099;-61
2021/03/16 11:03:33;;;;;;;2.95;1.90;;;;;;;;;;5062597;28;20044;-61
2021/03/16 11:06:01;;;;;;;5.05;1.80;;;;;;;;;;5065744;28;20070;-61
2021/03/16 11:08:28;;;;;;;3.05;1.73;;;;;;;;;;5062465;28;20055;-61
2021/03/16 11:10:55;;;;;;;5.38;2.10;;;;;;;;;;5063034;28;20518;-61
2021/03/16 11:13:21;;;;;;;3.13;1.85;;;;;;;;;;5063361;28;20079;-62
2021/03/16 11:15:48;;;;;;;4.88;1.95;;;;;;;;;;5065132;28;20517;-62
2021/03/16 11:18:19;;;;;;;2.45;1.73;;;;;;;;;;5061874;28;20127;-62
2021/03/16 11:20:45;;;;;;;3.80;1.63;;;;;;;;;;5063139;28;20048;-61
2021/03/16 11:23:12;;;;;;;4.00;1.73;;;;;;;;;;5062052;28;20099;-61
2021/03/16 11:25:39;;;;;;;4.75;1.95;;;;;;;;;;5060889;28;20504;-62
2021/03/16 11:28:05;;;;;;;2.42;1.42;;;;;;;;;;5062735;28;20482;-62
2021/03/16 11:30:31;;;;;;;3.35;1.80;;;;;;;;;;5061357;28;20048;-62
2021/03/16 11:32:58;;;;;;;2.10;1.23;;;;;;;;;;5063908;28;20040;-62
2021/03/16 11:35:43;;;;;;;2.67;1.67;;;;;;;;;;5060468;28;20075;-62
2021/03/16 11:38:28;;;;;;;2.92;1.52;;;;;;;;;;5061135;28;20064;-62
2021/03/16 11:41:13;;;;;;;2.55;1.60;;;;;;;;;;5061497;28;20063;-61
2021/03/16 11:43:58;;;;;;;3.05;1.83;;;;;;;;;;5062862;28;20063;-61
2021/03/16 11:46:43;;;;;;;1.52;1.30;;;;;;;;;;5061584;28;20071;-61
2021/03/16 11:49:28;;;;;;;2.95;1.48;;;;;;;;;;5061785;28;20059;-61
2021/03/16 11:52:13;;;;;;;3.80;1.95;;;;;;;;;;5061415;28;20106;-62
2021/03/16 11:54:58;;;;;;;4.93;1.70;;;;;;;;;;5060748;28;20123;-62
2021/03/16 11:57:42;;;;;;;3.45;1.60;;;;;;;;;;5061796;28;20502;-62
2021/03/16 12:00:27;;;;;;;3.95;1.80;;;;;;;;;;5061642;28;20133;-62
2021/03/16 12:03:12;;;;;;;5.65;1.80;;;;;;;;;;5059444;28;20589;-62
2021/03/16 12:05:58;;;;;;;2.55;1.60;;;;;;;;;;5063680;28;20127;-62
2021/03/16 12:08:43;;;;;;;3.53;1.70;;;;;;;;;;5064006;28;20159;-62
2021/03/16 12:11:28;;;;;;;4.95;1.83;;;;;;;;;;5062082;28;20676;-62
2021/03/16 12:14:12;;;;;;;2.17;1.38;;;;;;;;;;5064308;28;20059;-62
2021/03/16 12:16:57;;;;;;;5.43;1.70;;;;;;;;;;5062197;28;20059;-62
2021/03/16 12:19:42;;;;;;;1.85;1.33;;;;;;;;;;5063066;28;20064;-62
2021/03/16 12:22:27;;;;;;;4.45;1.95;;;;;;;;;;5061076;28;20129;-62
2021/03/16 12:25:12;;;;;;;3.50;1.27;;;;;;;;;;5065218;28;20111;-62
2021/03/16 12:27:57;;;;;;;3.47;1.50;;;;;;;;;;5064612;28;20056;-62
2021/03/16 12:30:42;;;;;;;3.97;1.38;;;;;;;;;;5062444;28;20606;-62
2021/03/16 12:33:27;;;;;;;3.70;1.27;;;;;;;;;;5062768;28;20051;-62
2021/03/16 12:36:13;;;;;;;5.20;1.60;;;;;;;;;;5063447;28;20048;-62
2021/03/16 12:38:58;;;;;;;3.80;1.63;;;;;;;;;;5062442;28;20510;-62
2021/03/16 12:41:43;;;;;;;3.95;1.40;;;;;;;;;;5060132;28;20056;-62
2021/03/16 12:44:30;;;;;;;4.85;1.45;;;;;;;;;;5063107;28;20150;-62
2021/03/16 12:47:15;;;;;;;5.15;1.52;;;;;;;;;;5058266;28;20067;-62
2021/03/16 12:50:01;;;;;;;2.10;1.30;;;;;;;;;;5061971;28;20142;-62
2021/03/16 12:52:46;;;;;;;2.55;1.30;;;;;;;;;;5063364;28;20056;-62
2021/03/16 12:55:32;;;;;;;6.05;1.27;;;;;;;;;;5062660;28;20420;-62
2021/03/16 12:58:17;;;;;;;3.75;1.13;;;;;;;;;;5064248;28;20048;-62
2021/03/16 13:01:02;;;;;;;2.03;1.23;;;;;;;;;;5061754;28;20060;-62
2021/03/16 13:03:47;;;;;;;2.70;1.48;;;;;;;;;;5060251;28;20051;-62
2021/03/16 13:06:32;;;;;;;2.95;1.20;;;;;;;;;;5062614;28;20053;-62
2021/03/16 13:09:17;;;;;;;4.55;1.27;;;;;;;;;;5061415;28;20059;-62
2021/03/16 13:12:02;;;;;;;3.28;1.50;;;;;;;;;;5063235;28;20106;-62
2021/03/16 13:14:47;;;;;;;3.40;1.00;;;;;;;;;;5061910;28;20066;-62
2021/03/16 13:17:32;;;;;;;2.20;1.33;;;;;;;;;;5062334;28;20122;-62
2021/03/16 13:20:17;;;;;;;3.58;1.35;;;;;;;;;;5058279;28;20052;-62
2021/03/16 13:23:02;;;;;;;2.35;1.17;;;;;;;;;;5064579;28;20562;-62
2021/03/16 13:25:47;;;;;;;2.00;1.13;;;;;;;;;;5060385;28;20047;-62
2021/03/16 13:28:32;;;;;;;2.63;1.15;;;;;;;;;;5060664;28;20510;-62
2021/03/16 13:31:17;;;;;;;3.53;1.15;;;;;;;;;;5061508;28;20101;-62
2021/03/16 13:34:03;;;;;;;1.48;0.93;;;;;;;;;;5058982;28;20126;-62
2021/03/16 13:36:48;;;;;;;3.75;0.90;;;;;;;;;;5062352;28;20048;-62
2021/03/16 13:39:33;;;;;;;4.38;1.27;;;;;;;;;;5060926;28;20511;-62
2021/03/16 13:42:17;;;;;;;1.52;0.88;;;;;;;;;;5061539;28;20439;-62
2021/03/16 13:45:03;;;;;;;4.18;1.20;;;;;;;;;;5064040;28;20073;-62
2021/03/16 13:47:48;;;;;;;2.38;1.10;;;;;;;;;;5062202;28;20078;-62
2021/03/16 13:50:33;;;;;;;3.22;1.35;;;;;;;;;;5057343;28;20518;-62
2021/03/16 13:53:18;;;;;;;2.17;1.23;;;;;;;;;;5061215;28;20063;-62
2021/03/16 13:56:04;;;;;;;0.98;0.70;;;;;;;;;;5062032;28;20067;-62
2021/03/16 13:58:48;;;;;;;1.98;1.08;;;;;;;;;;5061682;28;20060;-62
2021/03/16 14:01:33;;;;;;;1.30;0.90;;;;;;;;;;5063046;28;20070;-62
2021/03/16 14:04:18;;;;;;;1.10;0.90;;;;;;;;;;5064204;28;20524;-62
2021/03/16 14:07:03;;;;;;;3.13;0.80;;;;;;;;;;5064200;28;20636;-63
2021/03/16 14:09:48;;;;;;;1.17;0.80;;;;;;;;;;5064383;28;20115;-62
2021/03/16 14:12:33;;;;;;;1.55;0.95;;;;;;;;;;5064036;28;20056;-63
2021/03/16 14:15:18;;;;;;;2.85;1.17;;;;;;;;;;5065517;28;20134;-63
2021/03/16 14:18:03;;;;;;;2.03;0.80;;;;;;;;;;5064662;28;20059;-63
2021/03/16 14:20:48;;;;;;;3.05;0.80;;;;;;;;;;5063822;28;20059;-63
2021/03/16 14:23:33;;;;;;;2.50;0.90;;;;;;;;;;5062247;28;20507;-62
2021/03/16 14:26:18;;;;;;;3.22;0.82;;;;;;;;;;5067491;28;20141;-62
2021/03/16 14:29:03;;;;;;;2.03;0.98;;;;;;;;;;5064217;28;20059;-63
2021/03/16 14:31:48;;;;;;;4.25;0.95;;;;;;;;;;5065217;28;20158;-63
2021/03/16 14:34:33;;;;;;;1.48;0.73;;;;;;;;;;5064821;28;20257;-62
2021/03/16 14:37:19;;;;;;;0.80;0.70;;;;;;;;;;5062012;28;20098;-63
2021/03/16 14:40:04;;;;;;;1.48;0.73;;;;;;;;;;5062599;28;20051;-62
2021/03/16 14:42:49;;;;;;;2.13;1.05;;;;;;;;;;5062886;28;20077;-62
2021/03/16 14:45:34;;;;;;;3.55;1.30;;;;;;;;;;5064806;28;20451;-63
2021/03/16 14:48:20;;;;;;;3.05;0.90;;;;;;;;;;5063495;28;20048;-63
2021/03/16 14:51:05;;;;;;;2.08;1.02;;;;;;;;;;5065777;28;20075;-63
2021/03/16 14:53:50;;;;;;;5.63;1.00;;;;;;;;;;5065535;28;20113;-62
2021/03/16 14:56:35;;;;;;;2.72;1.02;;;;;;;;;;5063699;28;20222;-63
2021/03/16 14:59:20;;;;;;;2.67;0.93;;;;;;;;;;5063121;28;20055;-64
2021/03/16 15:02:06;;;;;;;2.38;1.23;;;;;;;;;;5062445;28;20510;-63
2021/03/16 15:04:51;;;;;;;4.10;1.00;;;;;;;;;;5063253;28;20097;-63
2021/03/16 15:07:37;;;;;;;7.40;0.90;;;;;;;;;;5060110;28;20054;-63
2021/03/16 15:10:22;;;;;;;1.52;1.00;;;;;;;;;;5062249;28;20055;-62
2021/03/16 15:13:08;;;;;;;2.90;1.02;;;;;;;;;;5063921;28;20060;-63
2021/03/16 15:15:52;;;;;;;2.92;0.95;;;;;;;;;;5063494;28;20052;-62
2021/03/16 15:18:38;;;;;;;3.67;1.13;;;;;;;;;;5060091;28;20068;-62
2021/03/16 15:21:24;;;;;;;3.83;0.90;;;;;;;;;;5061620;28;20094;-63
2021/03/16 15:24:10;;;;;;;4.13;1.10;;;;;;;;;;5063426;28;20122;-63
2021/03/16 15:26:55;;;;;;;1.08;0.80;;;;;;;;;;5065095;28;20151;-63
2021/03/16 15:29:40;;;;;;;1.75;0.80;;;;;;;;;;5063687;28;20059;-63
2021/03/16 15:32:25;;;;;;;1.77;0.90;;;;;;;;;;5062969;28;20404;-63
2021/03/16 15:35:12;;;;;;;2.45;1.00;;;;;;;;;;5063539;28;20205;-62
2021/03/16 15:37:56;;;;;;;3.90;1.00;;;;;;;;;;5062481;28;20099;-63
2021/03/16 15:40:41;;;;;;;0.98;0.90;;;;;;;;;;5063386;28;20578;-63
2021/03/16 15:43:28;;;;;;;6.07;0.95;;;;;;;;;;5064436;28;20125;-63
2021/03/16 15:46:14;;;;;;;2.58;0.80;;;;;;;;;;5062817;28;20522;-63
2021/03/16 15:48:59;;;;;;;3.35;1.02;;;;;;;;;;5062391;28;20205;-63
2021/03/16 15:51:45;;;;;;;3.15;0.88;;;;;;;;;;5060855;28;20051;-63
2021/03/16 15:54:30;;;;;;;1.90;0.60;;;;;;;;;;5062954;28;20043;-62
2021/03/16 15:57:14;;;;;;;1.35;0.57;;;;;;;;;;5064831;28;20051;-63
2021/03/16 15:59:59;;;;;;;4.85;1.00;;;;;;;;;;5061832;28;20065;-63
2021/03/16 16:02:44;;;;;;;2.05;1.15;;;;;;;;;;5060843;28;20423;-63
2021/03/16 16:05:33;;;;;;;1.17;0.80;;;;;;;;;;5062417;28;20055;-63
2021/03/16 16:08:18;;;;;;;3.15;0.85;;;;;;;;;;5059961;28;20056;-62
2021/03/16 16:11:03;;;;;;;2.90;1.00;;;;;;;;;;5064325;28;20064;-63